createdAt,value
2022-08-22T00:00:58.868Z,101376.97
2022-08-22T00:03:02.938Z,101311.88
2022-08-22T00:06:15.256Z,101381.19
2022-08-22T00:11:29.442Z,101376.63
2022-08-22T00:16:38.398Z,101380.84
2022-08-22T00:21:48.737Z,101371.88
2022-08-22T00:26:57.140Z,101383.22
2022-08-22T00:32:10.315Z,101383.97
2022-08-22T00:37:24.522Z,101376.84
2022-08-22T00:42:53.950Z,101378.47
2022-08-22T00:48:07.582Z,101380.84
2022-08-22T00:53:32.693Z,101379.75
2022-08-22T00:59:22.828Z,101378.66
2022-08-22T01:04:50.933Z,101390.00
2022-08-22T01:10:05.126Z,101393.31
2022-08-22T01:15:11.094Z,101387.78
2022-08-22T01:20:53.589Z,101390.22
2022-08-22T01:26:31.487Z,101385.56
2022-08-22T01:32:19.392Z,101379.16
2022-08-22T01:37:59.886Z,101382.50
2022-08-22T01:43:18.017Z,101377.81
2022-08-22T01:48:26.016Z,101381.13
2022-08-22T01:53:43.688Z,101379.25
2022-08-22T01:58:58.807Z,101379.84
2022-08-22T02:04:10.872Z,101383.91
2022-08-22T02:09:28.916Z,101376.03
2022-08-22T02:14:44.639Z,101383.97
2022-08-22T02:19:55.359Z,101377.66
2022-08-22T02:25:09.012Z,101390.66
2022-08-22T02:30:17.137Z,101391.59
2022-08-22T02:35:26.514Z,101385.28
2022-08-22T02:40:35.409Z,101388.78
2022-08-22T02:45:47.919Z,101393.19
2022-08-22T02:50:57.396Z,101393.81
2022-08-22T02:56:04.961Z,101390.25
2022-08-22T03:01:24.335Z,101390.31
2022-08-22T03:06:39.897Z,101394.53
2022-08-22T03:11:48.366Z,101403.25
2022-08-22T03:17:02.765Z,101405.00
2022-08-22T03:22:11.275Z,101400.47
2022-08-22T03:27:32.735Z,101409.25
2022-08-22T03:32:53.701Z,101410.03
2022-08-22T03:38:14.606Z,101414.31
2022-08-22T03:43:39.931Z,101417.72
2022-08-22T03:49:13.883Z,101414.88
2022-08-22T03:54:48.951Z,101408.63
2022-08-22T04:00:22.466Z,101424.34
2022-08-22T04:06:11.527Z,101428.69
2022-08-22T04:11:51.821Z,101427.72
2022-08-22T04:17:33.581Z,101422.06
2022-08-22T04:23:12.949Z,101427.81
2022-08-22T04:28:20.746Z,101435.41
2022-08-22T04:33:30.410Z,101429.25
2022-08-22T04:38:40.072Z,101440.09
2022-08-22T04:43:49.042Z,101441.19
2022-08-22T04:48:56.371Z,101443.19
2022-08-22T04:54:39.722Z,101447.88
2022-08-22T04:59:43.693Z,101454.38
2022-08-22T05:04:51.498Z,101458.09
2022-08-22T05:10:11.621Z,101460.13
2022-08-22T05:15:23.170Z,101463.97
2022-08-22T05:20:28.688Z,101477.53
2022-08-22T05:25:37.163Z,101482.34
2022-08-22T05:30:41.004Z,101485.53
2022-08-22T05:35:50.782Z,101480.84
2022-08-22T05:41:03.101Z,101487.63
2022-08-22T05:46:09.825Z,101491.13
2022-08-22T05:51:18.779Z,101490.88
2022-08-22T05:56:33.698Z,101499.41
2022-08-22T06:01:44.580Z,101503.59
2022-08-22T06:06:55.027Z,101507.63
2022-08-22T06:12:01.696Z,101510.03
2022-08-22T06:17:11.250Z,101519.31
2022-08-22T06:22:18.744Z,101518.22
2022-08-22T06:27:25.597Z,101528.59
2022-08-22T06:32:59.002Z,101524.84
2022-08-22T06:38:00.571Z,101521.09
2022-08-22T06:43:13.245Z,101524.53
2022-08-22T06:48:19.416Z,101529.78
2022-08-22T06:53:25.886Z,101523.47
2022-08-22T06:58:34.471Z,101525.28
2022-08-22T07:03:41.994Z,101526.28
2022-08-22T07:08:45.452Z,101528.50
2022-08-22T07:14:01.782Z,101527.88
2022-08-22T07:19:04.618Z,101528.25
2022-08-22T07:24:08.765Z,101534.38
2022-08-22T07:29:23.180Z,101522.53
2022-08-22T07:34:44.665Z,101526.72
2022-08-22T07:39:54.010Z,101533.41
2022-08-22T07:45:10.169Z,101540.31
2022-08-22T07:50:21.867Z,101536.31
2022-08-22T07:55:27.064Z,101540.38
2022-08-22T08:00:32.471Z,101544.31
2022-08-22T08:05:39.453Z,101542.19
2022-08-22T08:10:42.405Z,101543.25
2022-08-22T08:15:47.025Z,101532.97
2022-08-22T08:20:52.805Z,101534.16
2022-08-22T08:26:04.323Z,101540.56
2022-08-22T08:31:20.471Z,101546.94
2022-08-22T08:36:31.308Z,101537.19
2022-08-22T08:42:31.537Z,101541.94
2022-08-22T08:47:49.580Z,101542.97
2022-08-22T08:53:27.023Z,101544.59
2022-08-22T08:58:43.335Z,101551.94
2022-08-22T09:04:21.384Z,101553.91
2022-08-22T09:09:38.577Z,101538.38
2022-08-22T09:15:19.743Z,101544.75
2022-08-22T09:20:48.657Z,101545.06
2022-08-22T09:25:56.648Z,101536.28
2022-08-22T09:31:32.841Z,101536.16
2022-08-22T09:37:06.485Z,101534.38
2022-08-22T09:42:21.091Z,101537.22
2022-08-22T09:47:32.730Z,101534.88
2022-08-22T09:52:54.708Z,101536.88
2022-08-22T09:58:05.879Z,101535.56
2022-08-22T10:03:20.481Z,101533.91
2022-08-22T10:08:50.755Z,101524.91
2022-08-22T10:14:01.529Z,101532.22
2022-08-22T10:19:18.734Z,101522.34
2022-08-22T10:24:43.858Z,101526.13
2022-08-22T10:30:04.977Z,101516.44
2022-08-22T10:35:19.504Z,101515.56
2022-08-22T10:40:29.937Z,101511.06
2022-08-22T10:45:36.584Z,101512.84
2022-08-22T10:50:44.472Z,101511.97
2022-08-22T10:55:54.049Z,101513.75
2022-08-22T11:01:02.540Z,101506.56
2022-08-22T11:06:30.605Z,101514.66
2022-08-22T11:11:43.543Z,101510.00
2022-08-22T11:16:58.022Z,101499.13
2022-08-22T11:22:06.892Z,101502.44
2022-08-22T11:27:21.949Z,101506.22
2022-08-22T11:32:49.676Z,101499.00
2022-08-22T11:38:01.120Z,101501.88
2022-08-22T11:43:32.568Z,101497.19
2022-08-22T11:48:48.655Z,101492.50
2022-08-22T11:54:01.985Z,101490.63
2022-08-22T11:59:16.218Z,101489.31
2022-08-22T12:04:28.409Z,101483.97
2022-08-22T12:09:55.696Z,101502.97
2022-08-22T12:15:09.147Z,101492.16
2022-08-22T12:20:28.305Z,101487.69
2022-08-22T12:26:01.057Z,101489.50
2022-08-22T12:31:13.731Z,101493.09
2022-08-22T12:36:45.912Z,101490.38
2022-08-22T12:42:21.616Z,101484.94
2022-08-22T12:47:42.107Z,101480.50
2022-08-22T12:52:58.676Z,101470.66
2022-08-22T12:58:12.637Z,101478.72
2022-08-22T13:03:25.815Z,101472.44
2022-08-22T13:08:32.481Z,101476.00
2022-08-22T13:13:40.458Z,101475.97
2022-08-22T13:18:56.677Z,101472.34
2022-08-22T13:24:05.771Z,101469.66
2022-08-22T13:29:27.407Z,101484.00
2022-08-22T13:34:49.225Z,101481.28
2022-08-22T13:39:56.104Z,101483.94
2022-08-22T13:45:04.465Z,101490.16
2022-08-22T13:50:15.000Z,101486.50
2022-08-22T13:55:21.087Z,101482.91
2022-08-22T14:00:59.769Z,101477.53
2022-08-22T14:06:37.530Z,101485.59
2022-08-22T14:11:45.615Z,101486.53
2022-08-22T14:16:51.750Z,101493.66
2022-08-22T14:22:00.187Z,101481.94
2022-08-22T14:27:07.150Z,101489.03
2022-08-22T14:32:35.044Z,101484.53
2022-08-22T14:37:44.400Z,101490.84
2022-08-22T14:42:55.582Z,101490.75
2022-08-22T14:48:30.556Z,101499.63
2022-08-22T14:53:30.181Z,101492.44
2022-08-22T14:58:37.234Z,101482.44
2022-08-22T15:03:42.578Z,101487.75
2022-08-22T15:08:51.635Z,101489.53
2022-08-22T15:14:04.058Z,101482.31
2022-08-22T15:19:26.432Z,101484.97
2022-08-22T15:24:32.067Z,101484.06
2022-08-22T15:29:51.683Z,101476.94
2022-08-22T15:35:03.375Z,101481.38
2022-08-22T15:40:13.186Z,101481.41
2022-08-22T15:45:21.368Z,101468.88
2022-08-22T15:50:35.986Z,101468.78
2022-08-22T15:56:19.727Z,101465.22
2022-08-22T16:01:25.486Z,101472.38
2022-08-22T16:06:45.076Z,101473.22
2022-08-22T16:11:55.908Z,101466.84
2022-08-22T16:17:03.950Z,101459.56
2022-08-22T16:22:16.957Z,101463.97
2022-08-22T16:27:25.676Z,101462.88
2022-08-22T16:32:29.340Z,101458.38
2022-08-22T16:37:45.953Z,101459.19
2022-08-22T16:43:10.578Z,101466.22
2022-08-22T16:48:39.551Z,101475.09
2022-08-22T16:54:08.719Z,101477.66
2022-08-22T16:59:29.594Z,101477.53
2022-08-22T17:04:52.052Z,101481.91
2022-08-22T17:10:12.370Z,101479.94
2022-08-22T17:15:28.035Z,101479.72
2022-08-22T17:20:44.292Z,101488.59
2022-08-22T17:25:59.662Z,101497.47
2022-08-22T17:31:11.809Z,101485.81
2022-08-22T17:36:26.994Z,101494.59
2022-08-22T17:41:39.539Z,101510.47
2022-08-22T17:46:49.586Z,101500.44
2022-08-22T17:51:58.626Z,101503.91
2022-08-22T17:57:08.193Z,101505.56
2022-08-22T18:02:25.448Z,101510.00
2022-08-22T18:07:38.317Z,101518.84
2022-08-22T18:12:47.027Z,101518.75
2022-08-22T18:17:56.724Z,101522.97
2022-08-22T18:23:04.429Z,101529.91
2022-08-22T18:28:13.878Z,101530.59
2022-08-22T18:33:24.316Z,101527.66
2022-08-22T18:38:33.224Z,101547.88
2022-08-22T18:43:39.299Z,101553.84
2022-08-22T18:49:05.414Z,101549.25
2022-08-22T18:54:37.100Z,101553.56
2022-08-22T18:59:54.782Z,101552.47
2022-08-22T19:05:42.642Z,101555.97
2022-08-22T19:10:55.106Z,101557.47
2022-08-22T19:16:14.440Z,101551.84
2022-08-22T19:21:40.819Z,101555.16
2022-08-22T19:26:48.152Z,101547.63
2022-08-22T19:31:54.533Z,101557.34
2022-08-22T19:37:32.255Z,101555.31
2022-08-22T19:42:39.999Z,101558.78
2022-08-22T19:47:44.478Z,101565.66
2022-08-22T19:53:05.478Z,101562.88
2022-08-22T19:58:18.803Z,101568.88
2022-08-22T20:03:45.719Z,101568.66
2022-08-22T20:08:58.798Z,101579.38
2022-08-22T20:14:30.096Z,101584.84
2022-08-22T20:20:16.442Z,101585.47
2022-08-22T20:25:33.386Z,101593.69
2022-08-22T20:30:44.240Z,101581.56
2022-08-22T20:35:54.418Z,101585.97
2022-08-22T20:41:11.740Z,101579.72
2022-08-22T20:46:36.386Z,101584.06
2022-08-22T20:51:39.214Z,101583.00
2022-08-22T20:56:53.623Z,101580.13
2022-08-22T21:02:07.756Z,101587.00
2022-08-22T21:07:10.658Z,101586.88
2022-08-22T21:12:13.901Z,101593.00
2022-08-22T21:17:27.102Z,101597.53
2022-08-22T21:22:33.554Z,101594.66
2022-08-22T21:27:36.610Z,101598.75
2022-08-22T21:32:44.287Z,101593.84
2022-08-22T21:37:47.982Z,101599.19
2022-08-22T21:43:02.522Z,101598.34
2022-08-22T21:48:34.257Z,101609.34
2022-08-22T21:53:37.076Z,101605.59
2022-08-22T21:58:43.385Z,101607.47
2022-08-22T22:03:47.542Z,101598.59
2022-08-22T22:08:50.696Z,101612.84
2022-08-22T22:13:53.515Z,101613.63
2022-08-22T22:18:57.915Z,101617.19
2022-08-22T22:24:00.710Z,101610.94
2022-08-22T22:29:04.570Z,101613.59
2022-08-22T22:34:08.700Z,101618.16
2022-08-22T22:39:11.833Z,101617.34
2022-08-22T22:44:14.633Z,101618.25
2022-08-22T22:49:19.327Z,101609.16
2022-08-22T22:54:27.336Z,101607.03
2022-08-22T22:59:30.319Z,101605.88
2022-08-22T23:04:39.352Z,101605.56
2022-08-22T23:09:44.966Z,101612.28
2022-08-22T23:14:48.121Z,101610.16
2022-08-22T23:19:53.064Z,101609.91
2022-08-22T23:24:55.892Z,101604.28
2022-08-22T23:29:58.701Z,101604.28
2022-08-22T23:35:02.920Z,101608.81
2022-08-22T23:40:09.318Z,101605.16
2022-08-22T23:45:12.261Z,101606.50
2022-08-22T23:50:16.438Z,101603.53
2022-08-22T23:55:19.363Z,101600.63
